Station info - map view · info · telemetry · weather · raw · status · beacons · messages · bulletins · browse · moving · my account
Callsign, ship name or locator: Clear       
It is possible to search using wildcards (*?) after a prefix. Example: OH*
APRS station N325MB - show graphs
Map loading...
Comment: W5JJB
Mic-E message: In service
Location: 34°32.94' N 94°12.41' W - locator EM24VN51ES - show map - static map
3.2 miles Southeast bearing 144° from Mena, Polk County, Arkansas, United States [?]
25.0 miles South bearing 195° from Waldron, Scott County, Arkansas, United States
58.8 miles South bearing 169° from Fort Smith, Sebastian County, Arkansas, United States
65.6 miles West bearing 273° from Hot Springs, Garland County, Arkansas, United States
Last position: 2018-05-01 10:49:24 EDT (22d 5h53m ago)
2018-05-01 09:49:24 CDT local time at Mena, United States [?]
Altitude: 1070 ft
Course: 96°
Speed: 1 MPH
Last telemetry: 2018-05-01 10:49:24 EDT (22d 5h53m ago) – show telemetry
Ch 1: 463, Ch 2: 617, Ch 3: 0, Ch 4: 0, Ch 5: 0
 1     2     3     4     5     6     7     8 
Device: Byonics: TinyTrak3 (tracker)
Last path: N325MB>S4SR9S via WD5MHZ-1*,K5CS-1*,WIDE2*,qAR,KA5MGL (good)
Positions stored: 1404
Stations near current position of N325MB - show more
callsign distance last heard - EDT      callsign distance last heard - EDT
NA0D-23.1 miles 326°2018-05-23 16:28:51 NA0D-93.4 miles 309°2018-05-19 18:49:22
WW5RM-515.6 miles 139°2018-05-21 07:58:50 WW5RM-915.6 miles 139°2018-05-19 21:44:03
FW276434.0 miles 307°2018-05-23 16:03:21 146.715-R34.4 miles 97°2018-05-23 16:14:26
Stations which heard N325MB directly on radio –
callsign pkts first heard - EDT last heard longest (tx => rx) longest at - EDT
LTROCK 1 2018-05-01 10:38:15 2018-05-01 10:38:15 EM24XI > EM34ST 91.2 miles 69° 2018-05-01 10:38:15
KB5VE-7 2 2018-05-01 08:57:25 2018-05-01 09:05:43 EM40KJ > EM51FK 115.7 miles 53° 2018-05-01 08:57:25
K5ROK 4 2018-05-01 09:58:13 2018-05-01 10:10:32 EM33KH > EM32IP 48.8 miles 191° 2018-05-01 10:10:32
HOTSPR 1 2018-05-01 10:03:31 2018-05-01 10:03:31 EM33ME > EM34LM 93.3 miles 356° 2018-05-01 10:03:31
WD5MHZ-1 1 2018-05-01 10:49:24 2018-05-01 10:49:24 EM24VN > EM24TX 30.2 miles 342° 2018-05-01 10:49:24
W5KRO 2 2018-05-01 08:55:42 2018-05-01 08:59:41 EM40KN > EM40NL 17.2 miles 115° 2018-05-01 08:59:41
N4ELM-2 1 2018-05-01 08:53:42 2018-05-01 08:53:42 EM40LH > EM30WD 62.7 miles 259° 2018-05-01 08:53:42
DEGRAY 1 2018-05-01 09:57:32 2018-05-01 09:57:32 EM32OW > EM34KF 91.0 miles 348° 2018-05-01 09:57:32
WB5NIN-5 5 2018-05-01 09:35:35 2018-05-01 09:49:33 EM32XB > EM32PF 42.9 miles 287° 2018-05-01 09:35:35
W5PFC-2 4 2018-05-01 08:52:27 2018-05-01 09:56:50 EM40ME > EM42WL 164.2 miles 18° 2018-05-01 08:52:27
KD5QZD-12 2 2018-05-01 08:57:08 2018-05-01 09:01:39 EM40KN > EM40OL 24.1 miles 107° 2018-05-01 09:01:39
KJ5FA-10 1 2018-05-01 10:19:28 2018-05-01 10:19:28 EM33FT > EM34RN 76.6 miles 46° 2018-05-01 10:19:28
KD5NDU-3 1 2018-05-01 09:39:35 2018-05-01 09:39:35 EM32WF > EM54FB 197.8 miles 49° 2018-05-01 09:39:35
KF5DII 1 2018-05-01 09:29:36 2018-05-01 09:29:36 EM41CT > EM42WH 105.6 miles 70° 2018-05-01 09:29:36
WINN 1 2018-05-01 09:48:10 2018-05-01 09:48:10 EM32TM > EM31QV 45.9 miles 192° 2018-05-01 09:48:10
NASHVL 2 2018-05-01 10:42:22 2018-05-01 10:45:22 EM24VM > EM34BA 36.6 miles 154° 2018-05-01 10:45:22
W5KLF-2 2 2018-05-01 09:15:38 2018-05-01 09:23:37 EM41FF > EM31PJ 65.7 miles 280° 2018-05-01 09:15:38
KC5ZJY 1 2018-05-01 09:31:17 2018-05-01 09:31:17 EM41CT > EM31SH 52.0 miles 227° 2018-05-01 09:31:17
KD5QZD-7 7 2018-05-01 09:53:32 2018-05-01 10:17:28 EM33GR > EM32BK 90.4 miles 194° 2018-05-01 10:17:28
KK5CM-3 4 2018-05-01 08:57:42 2018-05-01 09:05:40 EM40IU > EL49OR 83.7 miles 160° 2018-05-01 09:05:40
WZ5A-10 6 2018-05-01 08:51:43 2018-05-01 09:19:38 EM41FK > EM40MM 73.6 miles 150° 2018-05-01 09:19:38
NA0D-1 2 2018-05-01 10:15:28 2018-05-01 10:21:27 EM33HP > EM23TK 60.5 miles 256° 2018-05-01 10:15:28
NA0D-2 11 2018-05-01 10:27:26 2018-05-01 10:47:23 EM34CC > EM24VO 41.1 miles 323° 2018-05-01 10:27:26
K5ROK-1 17 2018-05-01 08:58:58 2018-05-01 10:28:04 EM40KJ > EM32MK 179.1 miles 322° 2018-05-01 08:58:58
KQ5T-5 4 2018-05-01 09:46:06 2018-05-01 10:37:03 EM34AG > EM32QM 141.4 miles 148° 2018-05-01 10:37:03
W5PSX-2 3 2018-05-01 10:13:29 2018-05-01 10:25:27 EM33IN > EM34OI 62.2 miles 30° 2018-05-01 10:13:29

Only position packets which were originated by the station are shown here. The range statistics show some extra long hops, because some digipeaters do not correctly add themselves to the digipeater path. Please check the raw packets.
About this site
This page shows real-time information collected from the Automatic Position Reporting System Internet network (APRS-IS). APRS is used by amateur (ham) radio operators to transmit real-time position information, weather data, telemetry and messages over the radio. A vehicle equipped with a GPS receiver, a VHF transmitter or HF transceiver and a small computer device called a tracker transmits it's location, speed and course in a small data packet, which is then received by a nearby iGate receiving site which forwards the packet on the Internet. Systems connected to the Internet can send information on the APRS-IS without a radio transmitter, or collect and display information transmitted anywhere in the world.
FAQ · Blog · Discussion group · Linking to aprs.fi · AIS sites · Service status · Database statistics · Advertising on aprs.fi · Technical details · API · Change log · Planned changes · Credits and thanks · Terms Of Service · iPhone/iPad APRS